sensor_id;sensor_type;location;lat;lon;timestamp;pressure;altitude;pressure_sealevel;temperature;humidity
27805;BME280;15183;51.350;11.102;2023-02-21T00:00:31;100103.59;;;13.46;63.62
27805;BME280;15183;51.350;11.102;2023-02-21T00:03:15;100114.81;;;13.48;63.59
27805;BME280;15183;51.350;11.102;2023-02-21T00:06:00;100119.88;;;13.50;63.71
27805;BME280;15183;51.350;11.102;2023-02-21T00:08:45;100117.78;;;13.52;63.74
27805;BME280;15183;51.350;11.102;2023-02-21T00:11:30;100117.78;;;13.52;63.42
27805;BME280;15183;51.350;11.102;2023-02-21T00:14:15;100128.50;;;13.57;63.79
27805;BME280;15183;51.350;11.102;2023-02-21T00:17:00;100127.38;;;13.53;63.62
27805;BME280;15183;51.350;11.102;2023-02-21T00:19:45;100107.38;;;13.38;63.65
27805;BME280;15183;51.350;11.102;2023-02-21T00:22:29;100112.72;;;13.50;63.82
27805;BME280;15183;51.350;11.102;2023-02-21T00:25:14;100132.47;;;13.54;63.64
27805;BME280;15183;51.350;11.102;2023-02-21T00:28:00;100137.81;;;13.54;63.93
27805;BME280;15183;51.350;11.102;2023-02-21T00:30:45;100129.59;;;13.44;64.00
27805;BME280;15183;51.350;11.102;2023-02-21T00:33:30;100127.38;;;13.53;63.61
27805;BME280;15183;51.350;11.102;2023-02-21T00:36:16;100150.28;;;13.54;63.64
27805;BME280;15183;51.350;11.102;2023-02-21T00:39:01;100129.59;;;13.44;63.92
27805;BME280;15183;51.350;11.102;2023-02-21T00:41:46;100154.47;;;13.50;64.17
27805;BME280;15183;51.350;11.102;2023-02-21T00:44:30;100127.19;;;13.42;64.21
27805;BME280;15183;51.350;11.102;2023-02-21T00:47:15;100118.84;;;13.39;64.19
27805;BME280;15183;51.350;11.102;2023-02-21T00:50:00;100093.78;;;13.23;64.38
27805;BME280;15183;51.350;11.102;2023-02-21T00:52:45;100127.75;;;13.44;64.08
27805;BME280;15183;51.350;11.102;2023-02-21T00:55:29;100130.44;;;13.44;64.26
27805;BME280;15183;51.350;11.102;2023-02-21T00:58:14;100119.78;;;13.32;64.38
27805;BME280;15183;51.350;11.102;2023-02-21T01:00:59;100132.25;;;13.44;64.26
27805;BME280;15183;51.350;11.102;2023-02-21T01:03:43;100111.22;;;13.30;64.37
27805;BME280;15183;51.350;11.102;2023-02-21T01:06:28;100116.91;;;13.34;64.30
27805;BME280;15183;51.350;11.102;2023-02-21T01:09:13;100137.38;;;13.45;64.53
27805;BME280;15183;51.350;11.102;2023-02-21T01:11:57;100093.47;;;13.19;64.59
27805;BME280;15183;51.350;11.102;2023-02-21T01:14:42;100085.59;;;13.12;64.65
27805;BME280;15183;51.350;11.102;2023-02-21T01:17:27;100129.00;;;13.42;64.82
27805;BME280;15183;51.350;11.102;2023-02-21T01:20:12;100119.78;;;13.32;64.44
27805;BME280;15183;51.350;11.102;2023-02-21T01:22:57;100090.66;;;13.26;64.39
27805;BME280;15183;51.350;11.102;2023-02-21T01:25:42;100100.50;;;13.25;64.67
27805;BME280;15183;51.350;11.102;2023-02-21T01:28:27;100132.25;;;13.44;64.61
27805;BME280;15183;51.350;11.102;2023-02-21T01:31:17;100140.94;;;13.39;64.76
27805;BME280;15183;51.350;11.102;2023-02-21T01:34:03;100146.63;;;13.43;64.90
27805;BME280;15183;51.350;11.102;2023-02-21T01:36:48;100141.28;;;13.43;64.87
27805;BME280;15183;51.350;11.102;2023-02-21T01:39:33;100137.38;;;13.34;64.93
27805;BME280;15183;51.350;11.102;2023-02-21T01:42:18;100130.91;;;13.29;65.19
27805;BME280;15183;51.350;11.102;2023-02-21T01:48:15;100145.34;;;13.45;64.75
27805;BME280;15183;51.350;11.102;2023-02-21T01:51:03;100151.72;;;13.44;64.87
27805;BME280;15183;51.350;11.102;2023-02-21T01:53:50;100132.97;;;13.39;65.08
27805;BME280;15183;51.350;11.102;2023-02-21T01:56:36;100120.03;;;13.31;64.78
27805;BME280;15183;51.350;11.102;2023-02-21T01:59:22;100123.47;;;13.43;65.00
27805;BME280;15183;51.350;11.102;2023-02-21T02:02:35;100129.38;;;13.45;65.07
27805;BME280;15183;51.350;11.102;2023-02-21T02:05:21;100123.84;;;13.47;65.33
27805;BME280;15183;51.350;11.102;2023-02-21T02:08:07;100126.72;;;13.45;65.26
27805;BME280;15183;51.350;11.102;2023-02-21T02:11:12;100121.16;;;13.47;64.80
27805;BME280;15183;51.350;11.102;2023-02-21T02:14:31;100094.06;;;13.50;64.99
27805;BME280;15183;51.350;11.102;2023-02-21T02:17:22;100115.50;;;13.43;65.14
27805;BME280;15183;51.350;11.102;2023-02-21T02:20:34;100122.88;;;13.53;65.34
27805;BME280;15183;51.350;11.102;2023-02-21T02:23:59;100122.06;;;13.53;65.28
27805;BME280;15183;51.350;11.102;2023-02-21T02:30:14;100117.28;;;13.55;65.45
27805;BME280;15183;51.350;11.102;2023-02-21T02:36:00;100106.56;;;13.50;65.02
27805;BME280;15183;51.350;11.102;2023-02-21T02:38:41;100093.16;;;13.44;65.40
27805;BME280;15183;51.350;11.102;2023-02-21T02:41:46;100108.59;;;13.59;65.33
27805;BME280;15183;51.350;11.102;2023-02-21T02:44:26;100105.50;;;13.51;65.49
27805;BME280;15183;51.350;11.102;2023-02-21T02:46:58;100110.78;;;13.63;65.08
27805;BME280;15183;51.350;11.102;2023-02-21T02:49:28;100087.44;;;13.53;65.32
27805;BME280;15183;51.350;11.102;2023-02-21T02:52:07;100116.13;;;13.63;65.29
27805;BME280;15183;51.350;11.102;2023-02-21T02:54:35;100081.47;;;13.45;64.97
27805;BME280;15183;51.350;11.102;2023-02-21T02:57:04;100090.03;;;13.48;65.07
27805;BME280;15183;51.350;11.102;2023-02-21T02:59:37;100105.13;;;13.59;64.58
27805;BME280;15183;51.350;11.102;2023-02-21T03:02:39;100109.75;;;13.64;65.31
27805;BME280;15183;51.350;11.102;2023-02-21T03:05:34;100108.34;;;13.61;65.31
27805;BME280;15183;51.350;11.102;2023-02-21T03:08:36;100085.84;;;13.52;65.33
27805;BME280;15183;51.350;11.102;2023-02-21T03:11:19;100093.69;;;13.58;65.08
27805;BME280;15183;51.350;11.102;2023-02-21T03:14:12;100077.28;;;13.50;65.29
27805;BME280;15183;51.350;11.102;2023-02-21T03:17:03;100087.78;;;13.56;65.46
27805;BME280;15183;51.350;11.102;2023-02-21T03:19:39;100085.34;;;13.55;65.31
27805;BME280;15183;51.350;11.102;2023-02-21T03:22:17;100068.97;;;13.46;65.52
27805;BME280;15183;51.350;11.102;2023-02-21T03:24:47;100082.56;;;13.62;64.95
27805;BME280;15183;51.350;11.102;2023-02-21T03:27:14;100058.06;;;13.48;65.22
27805;BME280;15183;51.350;11.102;2023-02-21T03:29:43;100064.44;;;13.46;65.00
27805;BME280;15183;51.350;11.102;2023-02-21T03:32:35;100069.06;;;13.51;65.42
27805;BME280;15183;51.350;11.102;2023-02-21T03:35:03;100085.56;;;13.65;65.52
27805;BME280;15183;51.350;11.102;2023-02-21T03:37:44;100064.41;;;13.58;65.27
27805;BME280;15183;51.350;11.102;2023-02-21T03:40:21;100074.91;;;13.65;65.24
27805;BME280;15183;51.350;11.102;2023-02-21T03:42:53;100074.56;;;13.62;65.25
27805;BME280;15183;51.350;11.102;2023-02-21T03:45:20;100069.47;;;13.60;65.16
27805;BME280;15183;51.350;11.102;2023-02-21T03:47:47;100059.22;;;13.52;65.27
27805;BME280;15183;51.350;11.102;2023-02-21T03:50:14;100044.78;;;13.48;65.28
27805;BME280;15183;51.350;11.102;2023-02-21T03:52:41;100075.84;;;13.59;65.36
27805;BME280;15183;51.350;11.102;2023-02-21T03:55:08;100085.56;;;13.65;65.29
27805;BME280;15183;51.350;11.102;2023-02-21T03:57:34;100058.09;;;13.65;65.32
27805;BME280;15183;51.350;11.102;2023-02-21T04:00:01;100060.53;;;13.66;65.16
27805;BME280;15183;51.350;11.102;2023-02-21T04:02:28;100054.88;;;13.63;65.37
27805;BME280;15183;51.350;11.102;2023-02-21T04:04:54;100055.03;;;13.56;65.25
27805;BME280;15183;51.350;11.102;2023-02-21T04:07:21;100048.09;;;13.55;65.38
27805;BME280;15183;51.350;11.102;2023-02-21T04:09:47;100068.41;;;13.61;64.94
27805;BME280;15183;51.350;11.102;2023-02-21T04:12:14;100055.94;;;13.62;65.18
27805;BME280;15183;51.350;11.102;2023-02-21T04:14:41;100024.63;;;13.40;65.32
27805;BME280;15183;51.350;11.102;2023-02-21T04:17:07;100048.91;;;13.55;65.20
27805;BME280;15183;51.350;11.102;2023-02-21T04:19:33;100045.69;;;13.53;65.56
27805;BME280;15183;51.350;11.102;2023-02-21T04:22:00;100033.06;;;13.49;65.41
27805;BME280;15183;51.350;11.102;2023-02-21T04:24:27;100033.06;;;13.49;65.41
27805;BME280;15183;51.350;11.102;2023-02-21T04:26:53;100011.50;;;13.33;65.40
27805;BME280;15183;51.350;11.102;2023-02-21T04:29:19;99983.00;;;13.16;65.46
27805;BME280;15183;51.350;11.102;2023-02-21T04:31:46;100002.13;;;13.30;65.26
27805;BME280;15183;51.350;11.102;2023-02-21T04:34:12;100039.53;;;13.53;65.32
27805;BME280;15183;51.350;11.102;2023-02-21T04:36:39;100006.75;;;13.35;65.19
27805;BME280;15183;51.350;11.102;2023-02-21T04:39:06;99994.97;;;13.31;65.28
27805;BME280;15183;51.350;11.102;2023-02-21T04:41:33;100000.03;;;13.32;65.52
27805;BME280;15183;51.350;11.102;2023-02-21T04:43:59;99990.13;;;13.28;65.25
27805;BME280;15183;51.350;11.102;2023-02-21T04:46:25;99998.75;;;13.35;65.20
27805;BME280;15183;51.350;11.102;2023-02-21T04:48:52;99995.03;;;13.48;65.21
27805;BME280;15183;51.350;11.102;2023-02-21T04:51:23;100007.63;;;13.41;65.08
27805;BME280;15183;51.350;11.102;2023-02-21T04:53:51;99950.28;;;13.33;65.25
27805;BME280;15183;51.350;11.102;2023-02-21T04:56:20;100000.81;;;13.45;65.60
27805;BME280;15183;51.350;11.102;2023-02-21T04:58:47;100012.25;;;13.45;65.13
27805;BME280;15183;51.350;11.102;2023-02-21T05:01:15;99981.88;;;13.29;65.13
27805;BME280;15183;51.350;11.102;2023-02-21T05:03:42;100020.03;;;13.47;65.31
27805;BME280;15183;51.350;11.102;2023-02-21T05:06:09;100007.44;;;13.42;65.29
27805;BME280;15183;51.350;11.102;2023-02-21T05:08:36;99926.84;;;12.84;65.35
27805;BME280;15183;51.350;11.102;2023-02-21T05:11:02;100001.25;;;13.42;65.17
27805;BME280;15183;51.350;11.102;2023-02-21T05:13:29;100011.00;;;13.48;65.67
27805;BME280;15183;51.350;11.102;2023-02-21T05:15:55;99993.66;;;13.34;65.57
27805;BME280;15183;51.350;11.102;2023-02-21T05:18:22;99928.78;;;12.88;65.12
27805;BME280;15183;51.350;11.102;2023-02-21T05:20:51;99968.94;;;13.04;65.28
27805;BME280;15183;51.350;11.102;2023-02-21T05:23:18;100037.44;;;13.55;65.29
27805;BME280;15183;51.350;11.102;2023-02-21T05:26:08;100024.38;;;13.53;65.39
27805;BME280;15183;51.350;11.102;2023-02-21T05:28:35;100023.72;;;13.46;66.09
27805;BME280;15183;51.350;11.102;2023-02-21T05:31:03;100033.41;;;13.52;65.59
27805;BME280;15183;51.350;11.102;2023-02-21T05:33:30;100023.97;;;13.44;65.38
27805;BME280;15183;51.350;11.102;2023-02-21T05:35:56;100037.13;;;13.51;65.37
27805;BME280;15183;51.350;11.102;2023-02-21T05:38:24;100031.25;;;13.37;65.18
27805;BME280;15183;51.350;11.102;2023-02-21T05:40:51;99947.81;;;12.97;65.28
27805;BME280;15183;51.350;11.102;2023-02-21T05:43:18;100026.50;;;13.39;65.00
27805;BME280;15183;51.350;11.102;2023-02-21T05:45:44;100047.94;;;13.62;65.59
27805;BME280;15183;51.350;11.102;2023-02-21T05:48:11;100046.25;;;13.55;65.36
27805;BME280;15183;51.350;11.102;2023-02-21T05:50:37;100010.19;;;13.36;65.08
27805;BME280;15183;51.350;11.102;2023-02-21T05:53:06;100058.03;;;13.59;65.35
27805;BME280;15183;51.350;11.102;2023-02-21T05:55:35;100046.47;;;13.54;65.25
27805;BME280;15183;51.350;11.102;2023-02-21T05:58:01;100054.31;;;13.60;65.13
27805;BME280;15183;51.350;11.102;2023-02-21T06:00:29;100033.00;;;13.43;65.03
27805;BME280;15183;51.350;11.102;2023-02-21T06:02:56;100048.66;;;13.57;65.16
27805;BME280;15183;51.350;11.102;2023-02-21T06:05:23;100067.28;;;13.57;65.64
27805;BME280;15183;51.350;11.102;2023-02-21T06:07:50;100089.56;;;13.68;65.44
27805;BME280;15183;51.350;11.102;2023-02-21T06:10:18;100042.75;;;13.55;65.30
27805;BME280;15183;51.350;11.102;2023-02-21T06:12:44;100069.66;;;13.70;65.17
27805;BME280;15183;51.350;11.102;2023-02-21T06:15:11;100058.09;;;13.65;65.27
27805;BME280;15183;51.350;11.102;2023-02-21T06:17:39;100003.00;;;13.19;65.38
27805;BME280;15183;51.350;11.102;2023-02-21T06:20:07;100036.00;;;13.35;65.24
27805;BME280;15183;51.350;11.102;2023-02-21T06:22:33;100069.25;;;13.62;65.43
27805;BME280;15183;51.350;11.102;2023-02-21T06:25:00;100067.59;;;13.43;65.21
27805;BME280;15183;51.350;11.102;2023-02-21T06:27:26;100084.03;;;13.69;65.21
27805;BME280;15183;51.350;11.102;2023-02-21T06:29:53;100097.00;;;13.66;65.55
27805;BME280;15183;51.350;11.102;2023-02-21T06:32:19;100021.53;;;13.14;65.68
27805;BME280;15183;51.350;11.102;2023-02-21T06:34:45;100108.31;;;13.73;65.03
27805;BME280;15183;51.350;11.102;2023-02-21T06:37:12;100107.50;;;13.72;65.55
27805;BME280;15183;51.350;11.102;2023-02-21T06:39:39;100097.81;;;13.66;65.61
27805;BME280;15183;51.350;11.102;2023-02-21T06:42:05;100103.47;;;13.70;65.58
27805;BME280;15183;51.350;11.102;2023-02-21T06:44:32;100107.16;;;13.69;65.26
27805;BME280;15183;51.350;11.102;2023-02-21T06:46:58;100099.91;;;13.64;65.47
27805;BME280;15183;51.350;11.102;2023-02-21T06:49:25;100096.09;;;13.60;65.28
27805;BME280;15183;51.350;11.102;2023-02-21T06:51:51;100124.94;;;13.80;65.57
27805;BME280;15183;51.350;11.102;2023-02-21T06:54:18;100100.13;;;13.63;65.34
27805;BME280;15183;51.350;11.102;2023-02-21T06:56:44;100141.25;;;13.84;65.41
27805;BME280;15183;51.350;11.102;2023-02-21T06:59:11;100151.91;;;13.84;65.45
27805;BME280;15183;51.350;11.102;2023-02-21T07:01:37;100154.34;;;13.85;65.44
27805;BME280;15183;51.350;11.102;2023-02-21T07:04:03;100146.34;;;13.85;65.43
27805;BME280;15183;51.350;11.102;2023-02-21T07:06:30;100130.25;;;13.80;65.45
27805;BME280;15183;51.350;11.102;2023-02-21T07:08:58;100141.59;;;13.87;65.41
27805;BME280;15183;51.350;11.102;2023-02-21T07:11:24;100130.16;;;13.75;65.44
27805;BME280;15183;51.350;11.102;2023-02-21T07:13:53;100141.59;;;13.87;65.37
27805;BME280;15183;51.350;11.102;2023-02-21T07:16:22;100155.09;;;13.98;65.49
27805;BME280;15183;51.350;11.102;2023-02-21T07:18:48;100159.94;;;14.01;65.25
27805;BME280;15183;51.350;11.102;2023-02-21T07:21:15;100160.50;;;14.03;64.94
27805;BME280;15183;51.350;11.102;2023-02-21T07:23:46;100158.53;;;13.98;65.32
27805;BME280;15183;51.350;11.102;2023-02-21T07:26:14;100149.03;;;14.02;65.46
27805;BME280;15183;51.350;11.102;2023-02-21T07:28:41;100157.91;;;14.08;65.26
27805;BME280;15183;51.350;11.102;2023-02-21T07:31:07;100154.53;;;14.13;65.31
27805;BME280;15183;51.350;11.102;2023-02-21T07:33:36;100168.84;;;14.24;65.02
27805;BME280;15183;51.350;11.102;2023-02-21T07:36:02;100162.28;;;14.31;64.77
27805;BME280;15183;51.350;11.102;2023-02-21T07:38:30;100127.56;;;14.09;64.61
27805;BME280;15183;51.350;11.102;2023-02-21T07:40:59;100170.13;;;14.38;64.82
27805;BME280;15183;51.350;11.102;2023-02-21T07:43:27;100156.94;;;14.31;64.78
27805;BME280;15183;51.350;11.102;2023-02-21T07:45:54;100173.13;;;14.42;64.82
27805;BME280;15183;51.350;11.102;2023-02-21T07:48:21;100176.25;;;14.39;64.38
27805;BME280;15183;51.350;11.102;2023-02-21T07:50:49;100176.50;;;14.37;64.37
27805;BME280;15183;51.350;11.102;2023-02-21T07:53:15;100166.56;;;14.32;64.62
27805;BME280;15183;51.350;11.102;2023-02-21T07:55:42;100164.56;;;14.40;64.54
27805;BME280;15183;51.350;11.102;2023-02-21T07:58:08;100179.03;;;14.44;64.56
27805;BME280;15183;51.350;11.102;2023-02-21T08:00:35;100173.91;;;14.42;64.34
27805;BME280;15183;51.350;11.102;2023-02-21T08:03:02;100161.72;;;14.46;64.59
27805;BME280;15183;51.350;11.102;2023-02-21T08:05:28;100181.00;;;14.54;64.13
27805;BME280;15183;51.350;11.102;2023-02-21T08:07:55;100154.69;;;14.40;64.33
27805;BME280;15183;51.350;11.102;2023-02-21T08:10:25;100165.19;;;14.47;64.01
27805;BME280;15183;51.350;11.102;2023-02-21T08:12:52;100161.50;;;14.48;64.41
27805;BME280;15183;51.350;11.102;2023-02-21T08:15:18;100105.94;;;14.06;63.97
27805;BME280;15183;51.350;11.102;2023-02-21T08:17:47;100115.44;;;14.18;63.92
27805;BME280;15183;51.350;11.102;2023-02-21T08:20:15;100188.38;;;14.64;64.08
27805;BME280;15183;51.350;11.102;2023-02-21T08:22:42;100175.31;;;14.45;64.29
27805;BME280;15183;51.350;11.102;2023-02-21T08:25:13;100179.16;;;14.54;64.14
27805;BME280;15183;51.350;11.102;2023-02-21T08:27:43;100206.16;;;14.75;64.06
27805;BME280;15183;51.350;11.102;2023-02-21T08:30:15;100216.94;;;14.80;63.99
27805;BME280;15183;51.350;11.102;2023-02-21T08:32:42;100180.78;;;14.55;63.93
27805;BME280;15183;51.350;11.102;2023-02-21T08:35:14;100204.81;;;14.72;63.77
27805;BME280;15183;51.350;11.102;2023-02-21T08:37:47;100207.53;;;14.78;63.89
27805;BME280;15183;51.350;11.102;2023-02-21T08:40:17;100228.25;;;14.87;64.04
27805;BME280;15183;51.350;11.102;2023-02-21T08:42:51;100165.84;;;14.54;64.09
27805;BME280;15183;51.350;11.102;2023-02-21T08:45:21;100218.44;;;14.93;63.59
27805;BME280;15183;51.350;11.102;2023-02-21T08:47:48;100217.22;;;15.01;63.54
27805;BME280;15183;51.350;11.102;2023-02-21T08:50:16;100204.44;;;15.03;63.62
27805;BME280;15183;51.350;11.102;2023-02-21T08:52:45;100140.53;;;14.74;63.52
27805;BME280;15183;51.350;11.102;2023-02-21T08:55:12;100204.09;;;15.16;63.54
27805;BME280;15183;51.350;11.102;2023-02-21T08:57:39;100183.16;;;15.08;63.15
27805;BME280;15183;51.350;11.102;2023-02-21T09:00:06;100191.88;;;15.21;62.88
27805;BME280;15183;51.350;11.102;2023-02-21T09:02:37;100212.03;;;15.33;63.28
27805;BME280;15183;51.350;11.102;2023-02-21T09:05:09;100208.06;;;15.36;63.32
27805;BME280;15183;51.350;11.102;2023-02-21T09:07:36;100189.31;;;15.31;63.18
27805;BME280;15183;51.350;11.102;2023-02-21T09:10:04;100212.72;;;15.46;62.85
27805;BME280;15183;51.350;11.102;2023-02-21T09:12:32;100184.34;;;15.40;62.85
27805;BME280;15183;51.350;11.102;2023-02-21T09:14:58;100185.91;;;15.36;62.93
27805;BME280;15183;51.350;11.102;2023-02-21T09:17:25;100169.47;;;15.22;62.91
27805;BME280;15183;51.350;11.102;2023-02-21T09:19:51;100197.88;;;15.55;62.82
27805;BME280;15183;51.350;11.102;2023-02-21T09:22:18;100176.53;;;15.33;62.40
27805;BME280;15183;51.350;11.102;2023-02-21T09:24:44;100178.19;;;15.39;61.97
27805;BME280;15183;51.350;11.102;2023-02-21T09:27:10;100205.38;;;15.58;62.26
27805;BME280;15183;51.350;11.102;2023-02-21T09:29:37;100191.16;;;15.53;62.14
27805;BME280;15183;51.350;11.102;2023-02-21T09:32:04;100208.88;;;15.59;61.99
27805;BME280;15183;51.350;11.102;2023-02-21T09:34:30;100206.25;;;15.64;61.92
27805;BME280;15183;51.350;11.102;2023-02-21T09:36:56;100200.31;;;15.57;61.84
27805;BME280;15183;51.350;11.102;2023-02-21T09:39:24;100212.94;;;15.67;62.24
27805;BME280;15183;51.350;11.102;2023-02-21T09:41:51;100211.16;;;15.72;62.02
27805;BME280;15183;51.350;11.102;2023-02-21T09:44:25;100219.72;;;15.74;61.93
27805;BME280;15183;51.350;11.102;2023-02-21T09:47:00;100211.66;;;15.69;62.14
27805;BME280;15183;51.350;11.102;2023-02-21T09:49:40;100219.16;;;15.72;61.79
27805;BME280;15183;51.350;11.102;2023-02-21T09:52:26;100213.00;;;15.72;62.07
27805;BME280;15183;51.350;11.102;2023-02-21T09:54:57;100213.59;;;15.74;61.93
27805;BME280;15183;51.350;11.102;2023-02-21T09:57:25;100204.16;;;15.66;61.87
27805;BME280;15183;51.350;11.102;2023-02-21T09:59:51;100210.66;;;15.75;61.83
27805;BME280;15183;51.350;11.102;2023-02-21T10:05:45;100217.94;;;15.80;62.78
27805;BME280;15183;51.350;11.102;2023-02-21T10:08:43;100200.47;;;15.72;62.52
27805;BME280;15183;51.350;11.102;2023-02-21T10:14:26;100227.13;;;15.89;62.61
27805;BME280;15183;51.350;11.102;2023-02-21T10:17:18;100226.38;;;15.94;62.48
27805;BME280;15183;51.350;11.102;2023-02-21T10:19:54;100217.03;;;15.97;62.03
27805;BME280;15183;51.350;11.102;2023-02-21T10:22:26;100235.81;;;16.02;61.49
27805;BME280;15183;51.350;11.102;2023-02-21T10:24:53;100226.22;;;16.06;61.40
27805;BME280;15183;51.350;11.102;2023-02-21T10:27:26;100231.38;;;16.13;61.67
27805;BME280;15183;51.350;11.102;2023-02-21T10:30:06;100229.84;;;16.22;61.63
27805;BME280;15183;51.350;11.102;2023-02-21T10:32:37;100228.34;;;16.31;61.10
27805;BME280;15183;51.350;11.102;2023-02-21T10:35:04;100229.72;;;16.39;61.25
27805;BME280;15183;51.350;11.102;2023-02-21T10:37:53;100225.78;;;16.47;61.52
27805;BME280;15183;51.350;11.102;2023-02-21T10:40:45;100181.44;;;16.18;61.07
27805;BME280;15183;51.350;11.102;2023-02-21T10:43:46;100228.50;;;16.52;61.61
27805;BME280;15183;51.350;11.102;2023-02-21T10:46:29;100222.56;;;16.45;60.68
27805;BME280;15183;51.350;11.102;2023-02-21T10:49:30;100232.63;;;16.65;61.26
27805;BME280;15183;51.350;11.102;2023-02-21T10:52:14;100222.66;;;16.60;60.68
27805;BME280;15183;51.350;11.102;2023-02-21T10:55:19;100226.44;;;16.64;61.14
27805;BME280;15183;51.350;11.102;2023-02-21T10:57:54;100223.50;;;16.61;60.68
27805;BME280;15183;51.350;11.102;2023-02-21T11:00:25;100227.28;;;16.70;60.62
27805;BME280;15183;51.350;11.102;2023-02-21T11:03:21;100215.75;;;16.64;60.94
27805;BME280;15183;51.350;11.102;2023-02-21T11:05:54;100209.66;;;16.74;60.79
27805;BME280;15183;51.350;11.102;2023-02-21T11:08:42;100208.16;;;16.89;60.38
27805;BME280;15183;51.350;11.102;2023-02-21T11:11:09;100199.34;;;16.93;60.27
27805;BME280;15183;51.350;11.102;2023-02-21T11:13:36;100219.28;;;17.08;59.66
27805;BME280;15183;51.350;11.102;2023-02-21T11:16:20;100217.94;;;17.11;60.01
27805;BME280;15183;51.350;11.102;2023-02-21T11:19:06;100219.28;;;17.08;60.06
27805;BME280;15183;51.350;11.102;2023-02-21T11:21:33;100193.47;;;16.97;60.04
27805;BME280;15183;51.350;11.102;2023-02-21T11:24:05;100192.44;;;16.98;59.45
27805;BME280;15183;51.350;11.102;2023-02-21T11:26:46;100203.25;;;17.18;59.80
27805;BME280;15183;51.350;11.102;2023-02-21T11:29:21;100192.00;;;17.16;59.17
27805;BME280;15183;51.350;11.102;2023-02-21T11:31:52;100208.13;;;17.32;59.48
27805;BME280;15183;51.350;11.102;2023-02-21T11:34:19;100175.97;;;17.21;59.58
27805;BME280;15183;51.350;11.102;2023-02-21T11:36:46;100214.09;;;17.49;59.29
27805;BME280;15183;51.350;11.102;2023-02-21T11:39:21;100207.41;;;17.52;58.81
27805;BME280;15183;51.350;11.102;2023-02-21T11:42:04;100194.53;;;17.49;58.82
27805;BME280;15183;51.350;11.102;2023-02-21T11:45:00;100195.91;;;17.57;58.86
27805;BME280;15183;51.350;11.102;2023-02-21T11:47:42;100199.38;;;17.57;59.07
27805;BME280;15183;51.350;11.102;2023-02-21T11:50:24;100187.31;;;17.49;59.02
27805;BME280;15183;51.350;11.102;2023-02-21T11:53:23;100189.47;;;17.47;59.41
27805;BME280;15183;51.350;11.102;2023-02-21T11:59:15;100186.50;;;17.44;59.04
27805;BME280;15183;51.350;11.102;2023-02-21T12:02:18;100170.38;;;17.28;59.47
27805;BME280;15183;51.350;11.102;2023-02-21T12:07:44;100183.47;;;17.30;57.92
27805;BME280;15183;51.350;11.102;2023-02-21T12:10:59;100175.94;;;17.11;58.59
27805;BME280;15183;51.350;11.102;2023-02-21T12:13:35;100186.66;;;17.16;58.66
27805;BME280;15183;51.350;11.102;2023-02-21T12:16:35;100178.09;;;17.19;59.51
27805;BME280;15183;51.350;11.102;2023-02-21T12:19:18;100184.00;;;17.27;59.23
27805;BME280;15183;51.350;11.102;2023-02-21T12:22:06;100174.13;;;17.27;59.06
27805;BME280;15183;51.350;11.102;2023-02-21T12:47:29;100160.78;;;16.89;58.86
27805;BME280;15183;51.350;11.102;2023-02-21T12:50:24;100166.69;;;16.97;58.95
27805;BME280;15183;51.350;11.102;2023-02-21T12:53:02;100161.31;;;16.91;58.69
27805;BME280;15183;51.350;11.102;2023-02-21T12:55:40;100168.94;;;17.05;58.42
27805;BME280;15183;51.350;11.102;2023-02-21T12:58:37;100151.75;;;17.01;58.74
27805;BME280;15183;51.350;11.102;2023-02-21T13:01:30;100151.22;;;16.99;58.71
27805;BME280;15183;51.350;11.102;2023-02-21T13:04:21;100167.88;;;17.11;58.38
27805;BME280;15183;51.350;11.102;2023-02-21T13:07:08;100160.13;;;17.15;58.58
27805;BME280;15183;51.350;11.102;2023-02-21T13:09:49;100157.19;;;17.16;58.09
27805;BME280;15183;51.350;11.102;2023-02-21T13:15:24;100129.03;;;17.03;58.21
27805;BME280;15183;51.350;11.102;2023-02-21T13:18:10;100109.94;;;16.89;57.21
27805;BME280;15183;51.350;11.102;2023-02-21T13:20:48;100130.88;;;16.98;57.19
27805;BME280;15183;51.350;11.102;2023-02-21T13:26:51;100141.88;;;17.06;58.03
27805;BME280;15183;51.350;11.102;2023-02-21T13:29:34;100131.94;;;17.02;57.75
27805;BME280;15183;51.350;11.102;2023-02-21T13:32:13;100140.31;;;17.16;58.04
27805;BME280;15183;51.350;11.102;2023-02-21T13:34:52;100115.69;;;17.19;57.68
27805;BME280;15183;51.350;11.102;2023-02-21T13:37:24;100136.34;;;17.29;57.51
27805;BME280;15183;51.350;11.102;2023-02-21T13:39:56;100118.13;;;17.26;57.58
27805;BME280;15183;51.350;11.102;2023-02-21T13:42:28;100112.47;;;17.22;57.88
27805;BME280;15183;51.350;11.102;2023-02-21T13:45:18;100117.59;;;17.24;57.04
27805;BME280;15183;51.350;11.102;2023-02-21T13:53:25;100089.19;;;17.17;57.66
27805;BME280;15183;51.350;11.102;2023-02-21T13:56:14;100076.88;;;17.16;57.49
27805;BME280;15183;51.350;11.102;2023-02-21T13:58:47;100043.56;;;16.91;57.44
27805;BME280;15183;51.350;11.102;2023-02-21T14:01:22;100106.38;;;17.37;57.54
27805;BME280;15183;51.350;11.102;2023-02-21T14:03:51;100111.72;;;17.32;57.35
27805;BME280;15183;51.350;11.102;2023-02-21T14:06:33;100112.47;;;17.22;57.38
27805;BME280;15183;51.350;11.102;2023-02-21T14:09:18;100112.22;;;17.24;57.74
27805;BME280;15183;51.350;11.102;2023-02-21T14:11:49;100098.53;;;17.15;57.06
27805;BME280;15183;51.350;11.102;2023-02-21T14:14:33;100096.94;;;17.19;57.07
27805;BME280;15183;51.350;11.102;2023-02-21T14:17:04;100085.13;;;17.04;56.31
27805;BME280;15183;51.350;11.102;2023-02-21T14:19:46;100086.44;;;17.02;56.93